sensor_id;sensor_type;location;lat;lon;timestamp;pressure;altitude;pressure_sealevel;temperature;humidity
19594;BME280;9944;48.240;16.478;2022-09-09T00:02:18;99598.19;;;17.82;75.85
19594;BME280;9944;48.240;16.478;2022-09-09T00:06:26;99601.88;;;17.78;75.94
19594;BME280;9944;48.240;16.478;2022-09-09T00:10:32;99592.13;;;17.77;75.93
19594;BME280;9944;48.240;16.478;2022-09-09T00:14:44;99601.09;;;17.74;75.74
19594;BME280;9944;48.240;16.478;2022-09-09T00:18:56;99601.16;;;17.71;75.84
19594;BME280;9944;48.240;16.478;2022-09-09T00:23:09;99597.72;;;17.67;75.91
19594;BME280;9944;48.240;16.478;2022-09-09T00:27:21;99602.22;;;17.65;75.80
19594;BME280;9944;48.240;16.478;2022-09-09T00:31:29;99587.22;;;17.61;75.70
19594;BME280;9944;48.240;16.478;2022-09-09T00:35:36;99591.72;;;17.59;75.63
19594;BME280;9944;48.240;16.478;2022-09-09T00:39:43;99586.41;;;17.59;75.65
19594;BME280;9944;48.240;16.478;2022-09-09T00:43:56;99584.66;;;17.58;75.77
19594;BME280;9944;48.240;16.478;2022-09-09T00:48:04;99590.97;;;17.54;75.71
19594;BME280;9944;48.240;16.478;2022-09-09T00:52:23;99598.16;;;17.50;75.69
19594;BME280;9944;48.240;16.478;2022-09-09T00:56:47;99600.94;;;17.46;75.82
19594;BME280;9944;48.240;16.478;2022-09-09T01:01:00;99604.50;;;17.46;76.07
19594;BME280;9944;48.240;16.478;2022-09-09T01:05:13;99608.94;;;17.46;76.00
19594;BME280;9944;48.240;16.478;2022-09-09T01:09:23;99608.06;;;17.45;76.13
19594;BME280;9944;48.240;16.478;2022-09-09T01:13:30;99618.69;;;17.45;75.95
19594;BME280;9944;48.240;16.478;2022-09-09T01:17:48;99623.19;;;17.43;75.76
19594;BME280;9944;48.240;16.478;2022-09-09T01:22:03;99620.63;;;17.40;75.71
19594;BME280;9944;48.240;16.478;2022-09-09T01:26:25;99616.31;;;17.36;75.98
19594;BME280;9944;48.240;16.478;2022-09-09T01:30:33;99616.34;;;17.35;75.90
19594;BME280;9944;48.240;16.478;2022-09-09T01:34:38;99624.38;;;17.31;76.04
19594;BME280;9944;48.240;16.478;2022-09-09T01:38:43;99629.78;;;17.28;76.01
19594;BME280;9944;48.240;16.478;2022-09-09T01:42:47;99630.75;;;17.26;76.12
19594;BME280;9944;48.240;16.478;2022-09-09T01:46:51;99634.31;;;17.25;75.87
19594;BME280;9944;48.240;16.478;2022-09-09T01:50:56;99642.31;;;17.23;76.18
19594;BME280;9944;48.240;16.478;2022-09-09T01:54:59;99625.53;;;17.21;75.96
19594;BME280;9944;48.240;16.478;2022-09-09T01:59:23;99638.03;;;17.18;75.86
19594;BME280;9944;48.240;16.478;2022-09-09T02:03:32;99640.69;;;17.18;75.98
19594;BME280;9944;48.240;16.478;2022-09-09T02:07:57;99636.34;;;17.15;76.20
19594;BME280;9944;48.240;16.478;2022-09-09T02:12:13;99631.09;;;17.12;75.98
19594;BME280;9944;48.240;16.478;2022-09-09T02:16:28;99626.75;;;17.08;76.18
19594;BME280;9944;48.240;16.478;2022-09-09T02:20:34;99620.59;;;17.06;76.10
19594;BME280;9944;48.240;16.478;2022-09-09T02:24:40;99631.31;;;17.03;76.07
19594;BME280;9944;48.240;16.478;2022-09-09T02:28:56;99626.94;;;17.00;76.19
19594;BME280;9944;48.240;16.478;2022-09-09T02:33:06;99625.22;;;16.98;76.35
19594;BME280;9944;48.240;16.478;2022-09-09T02:37:22;99627.13;;;16.92;76.53
19594;BME280;9944;48.240;16.478;2022-09-09T02:41:31;99637.84;;;16.89;76.42
19594;BME280;9944;48.240;16.478;2022-09-09T02:45:41;99643.25;;;16.86;76.83
19594;BME280;9944;48.240;16.478;2022-09-09T02:49:59;99645.09;;;16.81;76.66
19594;BME280;9944;48.240;16.478;2022-09-09T02:54:10;99648.81;;;16.74;76.64
19594;BME280;9944;48.240;16.478;2022-09-09T02:58:17;99650.69;;;16.69;76.41
19594;BME280;9944;48.240;16.478;2022-09-09T03:02:30;99652.66;;;16.61;76.63
19594;BME280;9944;48.240;16.478;2022-09-09T03:06:40;99656.22;;;16.60;76.92
19594;BME280;9944;48.240;16.478;2022-09-09T03:10:51;99654.41;;;16.62;77.19
19594;BME280;9944;48.240;16.478;2022-09-09T03:14:58;99650.81;;;16.63;77.22
19594;BME280;9944;48.240;16.478;2022-09-09T03:19:01;99643.75;;;16.63;77.32
19594;BME280;9944;48.240;16.478;2022-09-09T03:23:06;99645.44;;;16.66;77.73
19594;BME280;9944;48.240;16.478;2022-09-09T03:27:16;99643.63;;;16.68;77.52
19594;BME280;9944;48.240;16.478;2022-09-09T03:31:21;99640.94;;;16.69;77.47
19594;BME280;9944;48.240;16.478;2022-09-09T03:35:25;99640.88;;;16.72;77.35
19594;BME280;9944;48.240;16.478;2022-09-09T03:39:30;99641.72;;;16.73;77.33
19594;BME280;9944;48.240;16.478;2022-09-09T03:43:34;99641.72;;;16.73;77.17
19594;BME280;9944;48.240;16.478;2022-09-09T03:47:38;99630.28;;;16.71;77.33
19594;BME280;9944;48.240;16.478;2022-09-09T03:51:41;99623.25;;;16.68;77.19
19594;BME280;9944;48.240;16.478;2022-09-09T03:55:51;99645.44;;;16.66;77.39
19594;BME280;9944;48.240;16.478;2022-09-09T03:59:58;99641.06;;;16.65;77.44
19594;BME280;9944;48.240;16.478;2022-09-09T04:04:06;99639.34;;;16.62;77.26
19594;BME280;9944;48.240;16.478;2022-09-09T04:08:11;99640.28;;;16.60;76.99
19594;BME280;9944;48.240;16.478;2022-09-09T04:12:15;99649.22;;;16.55;77.09
19594;BME280;9944;48.240;16.478;2022-09-09T04:16:19;99650.16;;;16.54;77.24
19594;BME280;9944;48.240;16.478;2022-09-09T04:20:23;99644.91;;;16.51;77.35
19594;BME280;9944;48.240;16.478;2022-09-09T04:24:26;99648.66;;;16.41;77.42
19594;BME280;9944;48.240;16.478;2022-09-09T04:28:35;99656.63;;;16.41;77.81
19594;BME280;9944;48.240;16.478;2022-09-09T04:32:44;99658.34;;;16.42;77.61
19594;BME280;9944;48.240;16.478;2022-09-09T04:36:48;99661.94;;;16.41;77.53
19594;BME280;9944;48.240;16.478;2022-09-09T04:40:53;99662.84;;;16.40;77.70
19594;BME280;9944;48.240;16.478;2022-09-09T04:44:58;99667.31;;;16.38;77.42
19594;BME280;9944;48.240;16.478;2022-09-09T04:49:02;99674.44;;;16.36;77.62
19594;BME280;9944;48.240;16.478;2022-09-09T04:53:16;99676.25;;;16.34;77.20
19594;BME280;9944;48.240;16.478;2022-09-09T04:57:19;99687.81;;;16.31;77.31
19594;BME280;9944;48.240;16.478;2022-09-09T05:01:24;99685.19;;;16.30;77.39
19594;BME280;9944;48.240;16.478;2022-09-09T05:05:35;99687.00;;;16.28;77.38
19594;BME280;9944;48.240;16.478;2022-09-09T05:09:38;99687.06;;;16.25;77.17
19594;BME280;9944;48.240;16.478;2022-09-09T05:13:41;99688.88;;;16.23;77.49
19594;BME280;9944;48.240;16.478;2022-09-09T05:17:46;99688.88;;;16.23;77.62
19594;BME280;9944;48.240;16.478;2022-09-09T05:21:50;99692.38;;;16.25;77.75
19594;BME280;9944;48.240;16.478;2022-09-09T05:25:58;99701.19;;;16.27;77.80
19594;BME280;9944;48.240;16.478;2022-09-09T05:30:03;99686.16;;;16.26;77.93
19594;BME280;9944;48.240;16.478;2022-09-09T05:34:10;99693.22;;;16.27;78.15
19594;BME280;9944;48.240;16.478;2022-09-09T05:38:13;99694.94;;;16.29;78.51
19594;BME280;9944;48.240;16.478;2022-09-09T05:42:19;99689.56;;;16.32;78.39
19594;BME280;9944;48.240;16.478;2022-09-09T05:46:30;99697.44;;;16.37;78.65
19594;BME280;9944;48.240;16.478;2022-09-09T05:50:35;99703.59;;;16.39;78.53
19594;BME280;9944;48.240;16.478;2022-09-09T05:54:39;99693.66;;;16.47;78.67
19594;BME280;9944;48.240;16.478;2022-09-09T05:58:43;99693.50;;;16.55;79.09
19594;BME280;9944;48.240;16.478;2022-09-09T06:02:51;99689.84;;;16.61;79.02
19594;BME280;9944;48.240;16.478;2022-09-09T06:06:57;99692.25;;;16.71;79.09
19594;BME280;9944;48.240;16.478;2022-09-09T06:11:03;99678.88;;;16.76;79.29
19594;BME280;9944;48.240;16.478;2022-09-09T06:15:08;99679.63;;;16.84;79.31
19594;BME280;9944;48.240;16.478;2022-09-09T06:19:11;99678.59;;;16.90;79.40
19594;BME280;9944;48.240;16.478;2022-09-09T06:23:18;99675.84;;;16.94;79.20
19594;BME280;9944;48.240;16.478;2022-09-09T06:27:22;99681.03;;;16.99;79.41
19594;BME280;9944;48.240;16.478;2022-09-09T06:31:26;99687.94;;;17.06;79.24
19594;BME280;9944;48.240;16.478;2022-09-09T06:35:36;99677.16;;;17.12;79.16
19594;BME280;9944;48.240;16.478;2022-09-09T06:39:40;99672.56;;;17.19;79.45
19594;BME280;9944;48.240;16.478;2022-09-09T06:43:44;99678.66;;;17.24;79.05
19594;BME280;9944;48.240;16.478;2022-09-09T06:47:47;99680.28;;;17.30;79.21
19594;BME280;9944;48.240;16.478;2022-09-09T06:51:51;99680.94;;;17.40;79.09
19594;BME280;9944;48.240;16.478;2022-09-09T06:55:57;99687.84;;;17.47;78.29
19594;BME280;9944;48.240;16.478;2022-09-09T07:00:01;99691.19;;;17.55;78.33
19594;BME280;9944;48.240;16.478;2022-09-09T07:04:05;99692.69;;;17.65;78.79
19594;BME280;9944;48.240;16.478;2022-09-09T07:08:11;99688.75;;;17.79;78.62
19594;BME280;9944;48.240;16.478;2022-09-09T07:12:15;99691.28;;;17.85;78.08
19594;BME280;9944;48.240;16.478;2022-09-09T07:16:28;99684.81;;;17.95;77.67
19594;BME280;9944;48.240;16.478;2022-09-09T07:20:34;99679.16;;;18.08;77.38
19594;BME280;9944;48.240;16.478;2022-09-09T07:24:37;99683.09;;;18.24;77.21
19594;BME280;9944;48.240;16.478;2022-09-09T07:28:42;99677.25;;;18.42;77.78
19594;BME280;9944;48.240;16.478;2022-09-09T07:32:46;99674.13;;;18.58;77.41
19594;BME280;9944;48.240;16.478;2022-09-09T07:36:49;99665.00;;;18.65;76.75
19594;BME280;9944;48.240;16.478;2022-09-09T07:40:53;99685.28;;;18.71;76.72
19594;BME280;9944;48.240;16.478;2022-09-09T07:44:58;99670.00;;;18.76;76.76
19594;BME280;9944;48.240;16.478;2022-09-09T07:49:02;99682.03;;;18.91;76.41
19594;BME280;9944;48.240;16.478;2022-09-09T07:53:08;99679.78;;;19.05;75.30
19594;BME280;9944;48.240;16.478;2022-09-09T07:57:11;99692.41;;;19.27;75.17
19594;BME280;9944;48.240;16.478;2022-09-09T08:01:18;99692.06;;;19.37;74.58
19594;BME280;9944;48.240;16.478;2022-09-09T08:05:22;99696.28;;;19.45;74.17
19594;BME280;9944;48.240;16.478;2022-09-09T08:09:26;99699.47;;;19.54;73.70
19594;BME280;9944;48.240;16.478;2022-09-09T08:13:43;99698.44;;;19.60;73.79
19594;BME280;9944;48.240;16.478;2022-09-09T08:17:48;99688.28;;;19.70;73.81
19594;BME280;9944;48.240;16.478;2022-09-09T08:21:51;99707.63;;;19.78;73.38
19594;BME280;9944;48.240;16.478;2022-09-09T08:25:54;99708.22;;;19.86;73.04
19594;BME280;9944;48.240;16.478;2022-09-09T08:29:58;99700.78;;;19.94;72.84
19594;BME280;9944;48.240;16.478;2022-09-09T08:34:06;99701.28;;;20.06;72.44
19594;BME280;9944;48.240;16.478;2022-09-09T08:38:11;99696.31;;;20.20;72.11
19594;BME280;9944;48.240;16.478;2022-09-09T08:42:24;99702.91;;;20.35;71.49
19594;BME280;9944;48.240;16.478;2022-09-09T08:46:38;99697.84;;;20.51;71.39
19594;BME280;9944;48.240;16.478;2022-09-09T08:50:49;99681.13;;;20.69;70.87
19594;BME280;9944;48.240;16.478;2022-09-09T08:55:13;99687.97;;;20.77;69.98
19594;BME280;9944;48.240;16.478;2022-09-09T08:59:20;99687.72;;;20.83;69.56
19594;BME280;9944;48.240;16.478;2022-09-09T09:03:30;99681.22;;;20.90;69.07
19594;BME280;9944;48.240;16.478;2022-09-09T09:07:51;99671.16;;;20.95;68.45
19594;BME280;9944;48.240;16.478;2022-09-09T09:12:06;99670.56;;;21.11;68.21
19594;BME280;9944;48.240;16.478;2022-09-09T09:16:18;99664.31;;;21.32;67.96
19594;BME280;9944;48.240;16.478;2022-09-09T09:20:41;99657.16;;;21.55;67.24
19594;BME280;9944;48.240;16.478;2022-09-09T09:24:52;99657.03;;;21.58;65.85
19594;BME280;9944;48.240;16.478;2022-09-09T09:28:58;99665.50;;;21.68;65.12
19594;BME280;9944;48.240;16.478;2022-09-09T09:33:06;99667.19;;;21.91;64.62
19594;BME280;9944;48.240;16.478;2022-09-09T09:37:15;99643.63;;;22.18;63.74
19594;BME280;9944;48.240;16.478;2022-09-09T09:41:34;99647.31;;;22.36;62.94
19594;BME280;9944;48.240;16.478;2022-09-09T09:45:42;99640.19;;;22.54;62.56
19594;BME280;9944;48.240;16.478;2022-09-09T09:50:17;99645.41;;;22.76;62.81
19594;BME280;9944;48.240;16.478;2022-09-09T09:54:27;99637.88;;;23.02;61.30
19594;BME280;9944;48.240;16.478;2022-09-09T09:58:49;99639.13;;;23.13;60.16
19594;BME280;9944;48.240;16.478;2022-09-09T10:02:59;99631.69;;;23.19;60.56
19594;BME280;9944;48.240;16.478;2022-09-09T10:07:10;99625.31;;;23.21;59.74
19594;BME280;9944;48.240;16.478;2022-09-09T10:11:26;99623.44;;;23.23;58.48
19594;BME280;9944;48.240;16.478;2022-09-09T10:15:42;99629.66;;;23.24;59.16
19594;BME280;9944;48.240;16.478;2022-09-09T10:20:00;99627.06;;;23.40;59.48
19594;BME280;9944;48.240;16.478;2022-09-09T10:24:26;99623.56;;;23.55;59.71
19594;BME280;9944;48.240;16.478;2022-09-09T10:28:48;99631.47;;;23.76;58.88
19594;BME280;9944;48.240;16.478;2022-09-09T10:33:04;99621.56;;;23.94;58.22
19594;BME280;9944;48.240;16.478;2022-09-09T10:37:25;99631.31;;;23.96;56.92
19594;BME280;9944;48.240;16.478;2022-09-09T10:41:46;99630.84;;;23.88;55.56
19594;BME280;9944;48.240;16.478;2022-09-09T10:46:00;99624.44;;;23.91;55.63
19594;BME280;9944;48.240;16.478;2022-09-09T10:50:24;99615.19;;;23.96;55.42
19594;BME280;9944;48.240;16.478;2022-09-09T10:54:56;99615.44;;;24.08;54.13
19594;BME280;9944;48.240;16.478;2022-09-09T10:59:06;99618.59;;;24.16;54.00
19594;BME280;9944;48.240;16.478;2022-09-09T11:03:18;99634.94;;;24.29;53.45
19594;BME280;9944;48.240;16.478;2022-09-09T11:07:35;99634.84;;;24.30;53.30
19594;BME280;9944;48.240;16.478;2022-09-09T11:11:45;99632.44;;;24.41;52.79
19594;BME280;9944;48.240;16.478;2022-09-09T11:15:57;99615.94;;;24.48;51.89
19594;BME280;9944;48.240;16.478;2022-09-09T11:20:05;99620.38;;;24.49;52.38
19594;BME280;9944;48.240;16.478;2022-09-09T11:24:12;99623.72;;;24.54;52.95
19594;BME280;9944;48.240;16.478;2022-09-09T11:28:28;99613.47;;;24.60;52.68
19594;BME280;9944;48.240;16.478;2022-09-09T11:37:49;99616.09;;;24.62;53.14
19594;BME280;9944;48.240;16.478;2022-09-09T11:42:07;99617.47;;;24.69;53.33
19594;BME280;9944;48.240;16.478;2022-09-09T11:46:16;99612.69;;;24.74;53.67
19594;BME280;9944;48.240;16.478;2022-09-09T11:50:32;99606.69;;;24.69;52.78
19594;BME280;9944;48.240;16.478;2022-09-09T11:54:46;99608.34;;;24.72;51.93
19594;BME280;9944;48.240;16.478;2022-09-09T11:58:57;99609.75;;;24.79;51.11
19594;BME280;9944;48.240;16.478;2022-09-09T12:03:01;99604.06;;;24.84;51.12
19594;BME280;9944;48.240;16.478;2022-09-09T12:07:19;99603.81;;;24.88;51.67
19594;BME280;9944;48.240;16.478;2022-09-09T12:11:27;99601.22;;;24.87;51.87
19594;BME280;9944;48.240;16.478;2022-09-09T12:15:34;99595.06;;;24.85;51.27
19594;BME280;9944;48.240;16.478;2022-09-09T12:19:37;99587.28;;;24.94;51.54
19594;BME280;9944;48.240;16.478;2022-09-09T12:23:45;99584.94;;;25.04;51.50
19594;BME280;9944;48.240;16.478;2022-09-09T12:28:02;99577.09;;;25.15;51.30
19594;BME280;9944;48.240;16.478;2022-09-09T12:32:11;99568.56;;;25.23;50.12
19594;BME280;9944;48.240;16.478;2022-09-09T12:36:18;99574.66;;;25.27;49.97
19594;BME280;9944;48.240;16.478;2022-09-09T12:40:24;99563.25;;;25.22;49.61
19594;BME280;9944;48.240;16.478;2022-09-09T12:44:27;99564.31;;;25.19;50.10
19594;BME280;9944;48.240;16.478;2022-09-09T12:48:34;99567.00;;;25.19;50.91
19594;BME280;9944;48.240;16.478;2022-09-09T12:52:39;99564.59;;;25.14;51.13
19594;BME280;9944;48.240;16.478;2022-09-09T12:56:45;99552.88;;;25.15;51.48
19594;BME280;9944;48.240;16.478;2022-09-09T13:00:50;99552.94;;;25.14;50.92
19594;BME280;9944;48.240;16.478;2022-09-09T13:05:08;99537.66;;;25.14;51.40
19594;BME280;9944;48.240;16.478;2022-09-09T13:09:16;99531.50;;;25.12;50.96
19594;BME280;9944;48.240;16.478;2022-09-09T13:13:21;99527.06;;;25.11;50.39
19594;BME280;9944;48.240;16.478;2022-09-09T13:17:26;99520.31;;;25.04;50.57
19594;BME280;9944;48.240;16.478;2022-09-09T13:21:33;99516.09;;;25.00;50.46
19594;BME280;9944;48.240;16.478;2022-09-09T13:25:38;99502.97;;;24.94;49.76
19594;BME280;9944;48.240;16.478;2022-09-09T13:29:51;99507.75;;;24.89;49.84
19594;BME280;9944;48.240;16.478;2022-09-09T13:33:57;99513.41;;;24.84;48.85
19594;BME280;9944;48.240;16.478;2022-09-09T13:38:08;99514.66;;;24.78;48.55
19594;BME280;9944;48.240;16.478;2022-09-09T13:42:22;99521.09;;;24.76;48.78
19594;BME280;9944;48.240;16.478;2022-09-09T13:46:35;99518.56;;;24.73;48.71
19594;BME280;9944;48.240;16.478;2022-09-09T13:50:39;99512.25;;;24.74;49.69
19594;BME280;9944;48.240;16.478;2022-09-09T13:54:47;99506.88;;;24.74;49.63
19594;BME280;9944;48.240;16.478;2022-09-09T13:58:50;99510.34;;;24.76;50.93
19594;BME280;9944;48.240;16.478;2022-09-09T14:02:53;99497.91;;;24.73;50.67
19594;BME280;9944;48.240;16.478;2022-09-09T14:06:57;99501.66;;;24.71;50.76
19594;BME280;9944;48.240;16.478;2022-09-09T14:11:02;99496.72;;;24.63;50.74
19594;BME280;9944;48.240;16.478;2022-09-09T14:15:07;99497.09;;;24.57;50.75
19594;BME280;9944;48.240;16.478;2022-09-09T14:19:12;99504.38;;;24.55;50.88
19594;BME280;9944;48.240;16.478;2022-09-09T14:23:15;99510.84;;;24.51;51.58
19594;BME280;9944;48.240;16.478;2022-09-09T14:27:20;99514.69;;;24.47;51.07
19594;BME280;9944;48.240;16.478;2022-09-09T14:31:24;99513.03;;;24.44;51.48
19594;BME280;9944;48.240;16.478;2022-09-09T14:35:27;99517.63;;;24.42;51.31
19594;BME280;9944;48.240;16.478;2022-09-09T14:39:30;99525.78;;;24.40;51.78
19594;BME280;9944;48.240;16.478;2022-09-09T14:43:35;99525.00;;;24.38;52.57
19594;BME280;9944;48.240;16.478;2022-09-09T14:47:38;99535.59;;;24.41;53.13
19594;BME280;9944;48.240;16.478;2022-09-09T14:51:41;99519.38;;;24.43;53.73
19594;BME280;9944;48.240;16.478;2022-09-09T14:55:44;99522.47;;;24.35;53.29
19594;BME280;9944;48.240;16.478;2022-09-09T14:59:49;99522.84;;;24.29;53.73
19594;BME280;9944;48.240;16.478;2022-09-09T15:03:54;99523.34;;;24.20;53.58
19594;BME280;9944;48.240;16.478;2022-09-09T15:07:57;99530.13;;;24.11;54.11
19594;BME280;9944;48.240;16.478;2022-09-09T15:12:01;99521.25;;;23.93;54.96
19594;BME280;9944;48.240;16.478;2022-09-09T15:16:07;99527.31;;;23.81;55.28
19594;BME280;9944;48.240;16.478;2022-09-09T15:20:10;99536.88;;;23.69;56.45
19594;BME280;9944;48.240;16.478;2022-09-09T15:24:13;99524.81;;;23.60;56.79
19594;BME280;9944;48.240;16.478;2022-09-09T15:28:18;99515.44;;;23.52;57.67
19594;BME280;9944;48.240;16.478;2022-09-09T15:32:23;99500.50;;;23.46;57.69
19594;BME280;9944;48.240;16.478;2022-09-09T15:36:27;99497.91;;;23.44;58.05
19594;BME280;9944;48.240;16.478;2022-09-09T15:40:31;99506.75;;;23.46;58.56
19594;BME280;9944;48.240;16.478;2022-09-09T15:44:41;99508.81;;;23.41;58.37
19594;BME280;9944;48.240;16.478;2022-09-09T15:48:45;99492.22;;;23.33;58.91
19594;BME280;9944;48.240;16.478;2022-09-09T15:52:55;99478.84;;;23.16;59.29
19594;BME280;9944;48.240;16.478;2022-09-09T15:56:59;99490.25;;;23.02;59.36
19594;BME280;9944;48.240;16.478;2022-09-09T16:01:03;99504.88;;;22.96;59.38
19594;BME280;9944;48.240;16.478;2022-09-09T16:05:08;99503.53;;;22.87;59.97
19594;BME280;9944;48.240;16.478;2022-09-09T16:09:12;99507.31;;;22.83;60.34
19594;BME280;9944;48.240;16.478;2022-09-09T16:13:15;99509.66;;;22.72;60.47
19594;BME280;9944;48.240;16.478;2022-09-09T16:17:18;99528.84;;;22.64;61.01
19594;BME280;9944;48.240;16.478;2022-09-09T16:21:25;99530.25;;;22.54;61.25
19594;BME280;9944;48.240;16.478;2022-09-09T16:25:31;99528.88;;;22.45;61.36
19594;BME280;9944;48.240;16.478;2022-09-09T16:29:34;99537.28;;;22.37;61.77
19594;BME280;9944;48.240;16.478;2022-09-09T16:33:37;99523.16;;;22.34;62.21
19594;BME280;9944;48.240;16.478;2022-09-09T16:37:42;99506.28;;;22.32;62.43
19594;BME280;9944;48.240;16.478;2022-09-09T16:41:47;99517.28;;;22.26;62.99
19594;BME280;9944;48.240;16.478;2022-09-09T16:45:50;99526.53;;;22.18;62.67
19594;BME280;9944;48.240;16.478;2022-09-09T16:49:53;99522.28;;;22.14;63.20
19594;BME280;9944;48.240;16.478;2022-09-09T16:54:00;99502.09;;;22.07;63.10
19594;BME280;9944;48.240;16.478;2022-09-09T16:58:04;99502.34;;;22.01;63.58
19594;BME280;9944;48.240;16.478;2022-09-09T17:02:07;99492.09;;;21.92;64.05
19594;BME280;9944;48.240;16.478;2022-09-09T17:06:13;99505.78;;;21.86;64.18
19594;BME280;9944;48.240;16.478;2022-09-09T17:10:17;99518.59;;;21.79;64.60
19594;BME280;9944;48.240;16.478;2022-09-09T17:14:22;99514.38;;;21.73;65.22
19594;BME280;9944;48.240;16.478;2022-09-09T17:18:26;99530.94;;;21.62;64.79
19594;BME280;9944;48.240;16.478;2022-09-09T17:22:30;99546.47;;;21.54;64.66
19594;BME280;9944;48.240;16.478;2022-09-09T17:26:35;99578.75;;;21.51;64.65
19594;BME280;9944;48.240;16.478;2022-09-09T17:30:40;99586.94;;;21.48;64.78
19594;BME280;9944;48.240;16.478;2022-09-09T17:34:43;99592.44;;;21.43;64.67
19594;BME280;9944;48.240;16.478;2022-09-09T17:38:48;99600.63;;;21.40;65.01
19594;BME280;9944;48.240;16.478;2022-09-09T17:42:52;99604.53;;;21.32;65.13
19594;BME280;9944;48.240;16.478;2022-09-09T17:46:56;99596.00;;;21.23;65.28
19594;BME280;9944;48.240;16.478;2022-09-09T17:50:59;99602.84;;;21.09;65.46
19594;BME280;9944;48.240;16.478;2022-09-09T17:55:03;99608.72;;;20.96;65.72
19594;BME280;9944;48.240;16.478;2022-09-09T17:59:09;99601.22;;;20.84;66.25
19594;BME280;9944;48.240;16.478;2022-09-09T18:03:13;99595.78;;;20.63;66.77
19594;BME280;9944;48.240;16.478;2022-09-09T18:07:17;99598.00;;;20.52;66.97
19594;BME280;9944;48.240;16.478;2022-09-09T18:11:22;99610.78;;;20.44;67.63
19594;BME280;9944;48.240;16.478;2022-09-09T18:15:27;99611.84;;;20.40;67.95
19594;BME280;9944;48.240;16.478;2022-09-09T18:19:50;99618.13;;;20.39;68.24
19594;BME280;9944;48.240;16.478;2022-09-09T18:23:53;99620.09;;;20.34;68.54
19594;BME280;9944;48.240;16.478;2022-09-09T18:27:56;99634.44;;;20.31;68.73
19594;BME280;9944;48.240;16.478;2022-09-09T18:32:01;99640.78;;;20.28;69.39
19594;BME280;9944;48.240;16.478;2022-09-09T18:36:06;99644.38;;;20.27;69.68
19594;BME280;9944;48.240;16.478;2022-09-09T18:40:09;99643.63;;;20.24;70.14
19594;BME280;9944;48.240;16.478;2022-09-09T18:44:15;99643.69;;;20.22;70.23
19594;BME280;9944;48.240;16.478;2022-09-09T18:48:19;99626.84;;;20.20;70.46
19594;BME280;9944;48.240;16.478;2022-09-09T18:52:22;99631.38;;;20.18;70.51
19594;BME280;9944;48.240;16.478;2022-09-09T18:56:28;99620.78;;;20.15;70.45
19594;BME280;9944;48.240;16.478;2022-09-09T19:00:31;99619.28;;;20.08;70.71
19594;BME280;9944;48.240;16.478;2022-09-09T19:04:36;99619.41;;;20.05;70.80
19594;BME280;9944;48.240;16.478;2022-09-09T19:08:41;99625.84;;;19.99;71.17
19594;BME280;9944;48.240;16.478;2022-09-09T19:12:44;99625.09;;;19.96;71.50
19594;BME280;9944;48.240;16.478;2022-09-09T19:16:47;99619.06;;;19.90;71.31
19594;BME280;9944;48.240;16.478;2022-09-09T19:20:52;99629.13;;;19.82;71.40
19594;BME280;9944;48.240;16.478;2022-09-09T19:24:55;99630.13;;;19.80;71.33
19594;BME280;9944;48.240;16.478;2022-09-09T19:29:00;99637.56;;;19.70;71.21
19594;BME280;9944;48.240;16.478;2022-09-09T19:33:03;99628.03;;;19.63;71.47
19594;BME280;9944;48.240;16.478;2022-09-09T19:37:08;99626.50;;;19.55;71.52
19594;BME280;9944;48.240;16.478;2022-09-09T19:41:19;99624.88;;;19.51;71.78
19594;BME280;9944;48.240;16.478;2022-09-09T19:45:24;99610.81;;;19.46;71.84
19594;BME280;9944;48.240;16.478;2022-09-09T19:49:28;99619.06;;;19.38;71.98
19594;BME280;9944;48.240;16.478;2022-09-09T19:53:37;99631.75;;;19.32;72.24
19594;BME280;9944;48.240;16.478;2022-09-09T19:57:41;99623.97;;;19.26;72.46
19594;BME280;9944;48.240;16.478;2022-09-09T20:01:44;99633.13;;;19.18;72.45
19594;BME280;9944;48.240;16.478;2022-09-09T20:05:48;99629.78;;;19.12;72.67
19594;BME280;9944;48.240;16.478;2022-09-09T20:09:52;99636.28;;;19.03;72.82
19594;BME280;9944;48.240;16.478;2022-09-09T20:13:55;99620.56;;;18.94;73.16
19594;BME280;9944;48.240;16.478;2022-09-09T20:17:59;99627.75;;;18.92;73.51
19594;BME280;9944;48.240;16.478;2022-09-09T20:22:02;99631.47;;;18.88;73.69
19594;BME280;9944;48.240;16.478;2022-09-09T20:26:09;99640.53;;;18.82;74.18
19594;BME280;9944;48.240;16.478;2022-09-09T20:30:13;99640.81;;;18.71;74.36
19594;BME280;9944;48.240;16.478;2022-09-09T20:34:18;99641.84;;;18.67;74.44
19594;BME280;9944;48.240;16.478;2022-09-09T20:38:22;99648.09;;;18.66;74.83
19594;BME280;9944;48.240;16.478;2022-09-09T20:42:36;99647.25;;;18.64;74.88
19594;BME280;9944;48.240;16.478;2022-09-09T20:46:41;99648.25;;;18.61;74.99
19594;BME280;9944;48.240;16.478;2022-09-09T20:50:44;99652.72;;;18.61;75.10
19594;BME280;9944;48.240;16.478;2022-09-09T20:54:47;99645.53;;;18.63;75.30
19594;BME280;9944;48.240;16.478;2022-09-09T20:58:53;99641.06;;;18.63;75.25
19594;BME280;9944;48.240;16.478;2022-09-09T21:02:56;99642.06;;;18.61;75.06
19594;BME280;9944;48.240;16.478;2022-09-09T21:07:00;99643.00;;;18.58;74.95
19594;BME280;9944;48.240;16.478;2022-09-09T21:11:05;99650.22;;;18.55;74.99
19594;BME280;9944;48.240;16.478;2022-09-09T21:15:10;99657.41;;;18.53;75.09
19594;BME280;9944;48.240;16.478;2022-09-09T21:19:13;99662.00;;;18.48;75.23
19594;BME280;9944;48.240;16.478;2022-09-09T21:23:17;99661.19;;;18.46;75.16
19594;BME280;9944;48.240;16.478;2022-09-09T21:27:20;99663.97;;;18.41;75.43
19594;BME280;9944;48.240;16.478;2022-09-09T21:31:25;99663.16;;;18.39;75.62
19594;BME280;9944;48.240;16.478;2022-09-09T21:35:33;99663.09;;;18.40;75.92
19594;BME280;9944;48.240;16.478;2022-09-09T21:39:37;99668.38;;;18.42;76.15
19594;BME280;9944;48.240;16.478;2022-09-09T21:43:41;99672.75;;;18.44;76.33
19594;BME280;9944;48.240;16.478;2022-09-09T21:47:46;99664.81;;;18.41;76.47
19594;BME280;9944;48.240;16.478;2022-09-09T21:51:50;99676.56;;;18.36;76.14
19594;BME280;9944;48.240;16.478;2022-09-09T21:55:59;99679.38;;;18.30;76.21